createdAt,value
2018-03-26T00:01:48.835Z,98.90
2018-03-26T00:04:15.025Z,98.90
2018-03-26T00:06:41.222Z,98.90
2018-03-26T00:09:08.175Z,98.90
2018-03-26T00:11:34.378Z,98.90
2018-03-26T00:14:00.590Z,98.80
2018-03-26T00:16:27.526Z,98.80
2018-03-26T00:18:53.713Z,98.80
2018-03-26T00:21:20.659Z,98.90
2018-03-26T00:23:46.854Z,98.80
2018-03-26T00:26:13.795Z,98.90
2018-03-26T00:28:40.007Z,98.90
2018-03-26T00:31:06.180Z,98.80
2018-03-26T00:33:32.409Z,98.80
2018-03-26T00:35:58.623Z,98.80
2018-03-26T00:38:25.543Z,98.70
2018-03-26T00:40:51.736Z,98.30
2018-03-26T00:43:18.732Z,98.60
2018-03-26T00:45:44.902Z,98.60
2018-03-26T00:48:11.096Z,98.30
2018-03-26T00:50:37.335Z,98.50
2018-03-26T00:53:03.503Z,98.60
2018-03-26T00:55:29.737Z,98.40
2018-03-26T00:57:55.934Z,98.60
2018-03-26T01:00:22.139Z,98.60
2018-03-26T01:02:48.374Z,98.70
2018-03-26T01:05:14.579Z,98.70
2018-03-26T01:07:40.814Z,98.60
2018-03-26T01:10:07.027Z,98.60
2018-03-26T01:12:33.214Z,98.70
2018-03-26T01:14:59.447Z,98.70
2018-03-26T01:17:25.634Z,98.70
2018-03-26T01:19:51.859Z,98.70
2018-03-26T01:22:18.082Z,98.70
2018-03-26T01:24:44.287Z,98.70
2018-03-26T01:27:11.970Z,98.60
2018-03-26T01:29:38.153Z,98.60
2018-03-26T01:32:05.092Z,98.70
2018-03-26T01:34:31.291Z,98.60
2018-03-26T01:36:57.504Z,98.70
2018-03-26T01:39:23.688Z,98.60
2018-03-26T01:41:50.626Z,98.50
2018-03-26T01:44:16.827Z,98.50
2018-03-26T01:46:43.015Z,98.50
2018-03-26T01:49:09.235Z,98.50
2018-03-26T01:51:35.422Z,98.50
2018-03-26T01:54:01.582Z,98.30
2018-03-26T01:56:27.810Z,98.40
2018-03-26T01:58:54.033Z,98.40
2018-03-26T02:01:20.187Z,98.30
2018-03-26T02:03:46.416Z,98.30
2018-03-26T02:06:13.290Z,98.20
2018-03-26T02:08:39.480Z,98.20
2018-03-26T02:11:05.709Z,97.90
2018-03-26T02:13:31.954Z,97.50
2018-03-26T02:15:58.139Z,97.50
2018-03-26T02:18:24.319Z,97.90
2018-03-26T02:20:50.532Z,98.00
2018-03-26T02:23:16.757Z,98.00
2018-03-26T02:25:42.960Z,98.10
2018-03-26T02:28:09.187Z,98.20
2018-03-26T02:30:35.421Z,98.20
2018-03-26T02:33:01.623Z,98.20
2018-03-26T02:35:27.856Z,98.20
2018-03-26T02:37:54.057Z,98.30
2018-03-26T02:40:21.014Z,98.30
2018-03-26T02:42:47.237Z,98.20
2018-03-26T02:45:13.474Z,98.30
2018-03-26T02:47:39.690Z,98.30
2018-03-26T02:50:06.632Z,98.30
2018-03-26T02:52:32.856Z,98.30
2018-03-26T02:54:59.083Z,98.30
2018-03-26T02:57:26.039Z,98.30
2018-03-26T02:59:53.020Z,98.10
2018-03-26T03:02:19.187Z,98.10
2018-03-26T03:04:45.351Z,98.20
2018-03-26T03:07:11.536Z,98.20
2018-03-26T03:09:37.713Z,98.20
2018-03-26T03:12:04.597Z,98.20
2018-03-26T03:14:30.761Z,98.10
2018-03-26T03:16:56.951Z,98.10
2018-03-26T03:19:23.126Z,98.20
2018-03-26T03:21:49.328Z,98.00
2018-03-26T03:24:16.221Z,97.90
2018-03-26T03:26:42.383Z,97.90
2018-03-26T03:29:08.594Z,97.80
2018-03-26T03:31:34.749Z,97.30
2018-03-26T03:34:00.944Z,97.50
2018-03-26T03:36:27.117Z,97.70
2018-03-26T03:38:54.003Z,97.70
2018-03-26T03:41:20.158Z,97.70
2018-03-26T03:43:46.322Z,97.70
2018-03-26T03:46:12.482Z,97.80
2018-03-26T03:48:38.659Z,97.90
2018-03-26T03:51:04.835Z,97.80
2018-03-26T03:53:31.724Z,97.80
2018-03-26T03:55:58.662Z,97.80
2018-03-26T03:58:27.997Z,97.70
2018-03-26T04:00:54.092Z,97.60
2018-03-26T04:03:20.168Z,97.70
2018-03-26T04:05:46.242Z,97.70
2018-03-26T04:08:13.058Z,97.90
2018-03-26T04:10:39.158Z,97.90
2018-03-26T04:13:05.219Z,97.90
2018-03-26T04:15:31.295Z,97.80
2018-03-26T04:17:57.392Z,97.90
2018-03-26T04:20:23.418Z,97.90
2018-03-26T04:22:49.496Z,98.00
2018-03-26T04:25:15.542Z,98.00
2018-03-26T04:27:41.615Z,98.00
2018-03-26T04:30:07.670Z,98.10
2018-03-26T04:32:33.730Z,98.10
2018-03-26T04:34:59.818Z,98.10
2018-03-26T04:37:26.620Z,98.20
2018-03-26T04:39:52.673Z,98.20
2018-03-26T04:42:18.771Z,98.20
2018-03-26T04:44:44.843Z,98.20
2018-03-26T04:47:10.906Z,98.30
2018-03-26T04:49:37.706Z,98.40
2018-03-26T04:52:03.754Z,98.40
2018-03-26T04:54:29.817Z,98.40
2018-03-26T04:56:55.888Z,98.40
2018-03-26T04:59:21.971Z,98.50
2018-03-26T05:01:48.037Z,98.50
2018-03-26T05:04:14.110Z,98.50
2018-03-26T05:06:40.184Z,98.50
2018-03-26T05:09:06.253Z,98.50
2018-03-26T05:11:33.068Z,98.60
2018-03-26T05:13:59.113Z,98.60
2018-03-26T05:16:25.181Z,98.60
2018-03-26T05:18:51.982Z,98.70
2018-03-26T05:21:18.061Z,98.70
2018-03-26T05:23:44.130Z,98.70
2018-03-26T05:26:10.177Z,98.70
2018-03-26T05:28:36.223Z,98.70
2018-03-26T05:31:02.322Z,98.80
2018-03-26T05:33:28.346Z,98.80
2018-03-26T05:35:55.147Z,98.90
2018-03-26T05:38:21.201Z,98.80
2018-03-26T05:40:47.268Z,98.80
2018-03-26T05:43:13.318Z,98.80
2018-03-26T05:45:40.158Z,98.90
2018-03-26T05:48:06.224Z,98.80
2018-03-26T05:50:33.032Z,98.90
2018-03-26T05:52:59.099Z,98.80
2018-03-26T05:55:25.894Z,99.00
2018-03-26T05:57:51.970Z,98.90
2018-03-26T06:00:18.074Z,99.00
2018-03-26T06:02:44.171Z,99.00
2018-03-26T06:05:10.998Z,98.90
2018-03-26T06:07:37.090Z,98.90
2018-03-26T06:10:03.162Z,98.90
2018-03-26T06:12:29.256Z,99.00
2018-03-26T06:14:55.336Z,99.00
2018-03-26T06:17:21.441Z,99.00
2018-03-26T06:19:47.524Z,99.00
2018-03-26T06:22:13.622Z,99.00
2018-03-26T06:24:39.717Z,99.00
2018-03-26T06:27:05.814Z,99.10
2018-03-26T06:29:31.909Z,99.10
2018-03-26T06:31:58.013Z,99.10
2018-03-26T06:34:24.105Z,99.10
2018-03-26T06:36:54.148Z,99.10
2018-03-26T06:39:23.281Z,99.10
2018-03-26T06:41:49.384Z,99.10
2018-03-26T06:44:15.549Z,99.10
2018-03-26T06:46:41.734Z,99.10
2018-03-26T06:49:07.739Z,99.10
2018-03-26T06:51:33.846Z,99.10
2018-03-26T06:53:59.927Z,99.10
2018-03-26T06:56:26.021Z,99.00
2018-03-26T06:58:52.096Z,99.40
2018-03-26T07:01:18.176Z,99.10
2018-03-26T07:03:44.242Z,99.00
2018-03-26T07:06:10.310Z,99.00
2018-03-26T07:08:36.366Z,99.00
2018-03-26T07:11:03.177Z,99.00
2018-03-26T07:13:29.241Z,99.00
2018-03-26T07:15:55.322Z,98.90
2018-03-26T07:18:21.381Z,98.80
2018-03-26T07:20:47.428Z,98.80
2018-03-26T07:23:13.494Z,98.70
2018-03-26T07:25:39.562Z,98.60
2018-03-26T07:28:05.648Z,98.60
2018-03-26T07:30:31.708Z,98.60
2018-03-26T07:32:58.518Z,98.50
2018-03-26T07:35:24.581Z,98.50
2018-03-26T07:37:50.642Z,98.60
2018-03-26T07:40:17.445Z,98.70
2018-03-26T07:42:43.506Z,98.70
2018-03-26T07:45:09.570Z,98.60
2018-03-26T07:47:36.400Z,98.60
2018-03-26T07:50:03.210Z,98.70
2018-03-26T07:52:29.266Z,98.70
2018-03-26T07:54:55.341Z,98.60
2018-03-26T07:57:21.398Z,98.50
2018-03-26T07:59:48.258Z,98.80
2018-03-26T08:02:15.104Z,98.40
2018-03-26T08:04:41.953Z,98.30
2018-03-26T08:07:08.781Z,98.30
2018-03-26T08:09:34.887Z,98.30
2018-03-26T08:12:00.973Z,97.90
2018-03-26T08:14:27.065Z,98.00
2018-03-26T08:16:53.150Z,97.90
2018-03-26T08:19:19.254Z,97.70
2018-03-26T08:21:45.355Z,97.30
2018-03-26T08:24:11.433Z,97.00
2018-03-26T08:26:37.532Z,97.10
2018-03-26T08:29:03.605Z,96.60
2018-03-26T08:31:29.689Z,96.40
2018-03-26T08:33:56.513Z,96.50
2018-03-26T08:36:22.620Z,96.40
2018-03-26T08:38:48.728Z,96.20
2018-03-26T08:41:14.822Z,96.20
2018-03-26T08:43:40.907Z,96.20
2018-03-26T08:46:07.031Z,96.00
2018-03-26T08:48:40.293Z,95.30
2018-03-26T08:51:06.378Z,95.30
2018-03-26T08:53:33.224Z,95.30
2018-03-26T08:55:59.324Z,95.30
2018-03-26T08:58:25.405Z,95.10
2018-03-26T09:00:52.210Z,94.40
2018-03-26T09:03:18.284Z,94.40
2018-03-26T09:05:44.386Z,94.70
2018-03-26T09:08:10.422Z,94.50
2018-03-26T09:10:36.491Z,94.40
2018-03-26T09:13:02.580Z,94.40
2018-03-26T09:15:28.642Z,94.50
2018-03-26T09:17:54.698Z,94.30
2018-03-26T09:20:20.762Z,93.90
2018-03-26T09:22:47.588Z,93.90
2018-03-26T09:25:13.659Z,93.90
2018-03-26T09:27:39.734Z,93.80
2018-03-26T09:30:05.774Z,93.90
2018-03-26T09:32:31.840Z,93.60
2018-03-26T09:34:57.911Z,93.60
2018-03-26T09:37:23.988Z,93.50
2018-03-26T09:39:50.057Z,93.20
2018-03-26T09:42:16.854Z,93.10
2018-03-26T09:44:42.926Z,93.10
2018-03-26T09:47:08.992Z,92.80
2018-03-26T09:49:35.808Z,92.90
2018-03-26T09:52:01.862Z,92.80
2018-03-26T09:54:27.942Z,93.10
2018-03-26T09:56:54.330Z,92.80
2018-03-26T09:59:34.499Z,92.30
2018-03-26T10:02:00.557Z,92.60
2018-03-26T10:04:26.629Z,92.20
2018-03-26T10:06:52.698Z,91.80
2018-03-26T10:09:18.790Z,91.90
2018-03-26T10:11:45.583Z,91.90
2018-03-26T10:14:11.679Z,91.90
2018-03-26T10:16:37.718Z,91.40
2018-03-26T10:19:04.505Z,91.40
2018-03-26T10:21:30.577Z,91.40
2018-03-26T10:23:56.621Z,90.30
2018-03-26T10:26:22.681Z,88.80
2018-03-26T10:28:49.496Z,88.90
2018-03-26T10:31:15.608Z,88.80
2018-03-26T10:33:42.354Z,87.80
2018-03-26T10:36:08.443Z,87.80
2018-03-26T10:38:34.502Z,87.60
2018-03-26T10:41:01.314Z,87.20
2018-03-26T10:43:27.383Z,87.10
2018-03-26T10:45:54.186Z,87.10
2018-03-26T10:48:20.252Z,87.10
2018-03-26T10:50:46.318Z,84.50
2018-03-26T10:53:13.161Z,81.60
2018-03-26T10:55:39.250Z,81.50
2018-03-26T10:58:05.359Z,82.20
2018-03-26T11:00:31.464Z,83.20
2018-03-26T11:02:57.576Z,84.80
2018-03-26T11:05:23.657Z,80.70
2018-03-26T11:07:50.503Z,78.20
2018-03-26T11:10:17.330Z,81.10
2018-03-26T11:12:43.430Z,81.10
2018-03-26T11:15:09.536Z,81.40
2018-03-26T11:17:36.358Z,81.50
2018-03-26T11:20:02.444Z,81.40
2018-03-26T11:22:28.518Z,82.70
2018-03-26T11:24:54.605Z,78.30
2018-03-26T11:27:21.431Z,76.10
2018-03-26T11:29:47.510Z,76.00
2018-03-26T11:32:13.596Z,77.20
2018-03-26T11:34:39.681Z,77.30
2018-03-26T11:37:06.515Z,79.90
2018-03-26T11:39:32.597Z,79.90
2018-03-26T11:41:58.685Z,80.30
2018-03-26T11:44:24.778Z,75.00
2018-03-26T11:46:50.854Z,76.30
2018-03-26T11:49:18.409Z,75.70
2018-03-26T11:51:44.506Z,75.70
2018-03-26T11:54:10.596Z,77.60
2018-03-26T11:56:36.689Z,75.70
2018-03-26T11:59:02.774Z,76.40
2018-03-26T12:01:28.867Z,76.10
2018-03-26T12:03:54.964Z,77.00
2018-03-26T12:06:21.056Z,75.40
2018-03-26T12:08:47.142Z,76.20
2018-03-26T12:11:14.333Z,75.40
2018-03-26T12:13:40.431Z,72.80
2018-03-26T12:16:06.566Z,72.90
2018-03-26T12:18:32.648Z,74.30
2018-03-26T12:21:00.579Z,75.40
2018-03-26T12:23:45.437Z,76.10
2018-03-26T12:26:11.536Z,75.40
2018-03-26T12:28:57.131Z,76.10
2018-03-26T12:31:24.012Z,76.80
2018-03-26T12:34:08.758Z,76.80
2018-03-26T12:36:35.590Z,75.10
2018-03-26T12:39:01.667Z,75.00
2018-03-26T12:41:27.777Z,76.00
2018-03-26T12:43:55.966Z,76.60
2018-03-26T12:46:44.117Z,74.20
2018-03-26T12:49:10.218Z,74.10
2018-03-26T12:51:55.063Z,74.70
2018-03-26T12:54:21.146Z,75.50
2018-03-26T12:56:47.251Z,75.50
2018-03-26T12:59:13.317Z,76.00
2018-03-26T13:01:58.286Z,76.30
2018-03-26T13:04:24.358Z,75.90
2018-03-26T13:06:50.447Z,74.90
2018-03-26T13:09:16.518Z,76.40
2018-03-26T13:11:42.590Z,76.50
2018-03-26T13:14:09.404Z,76.90
2018-03-26T13:16:35.484Z,76.90
2018-03-26T13:19:02.334Z,77.80
2018-03-26T13:21:29.256Z,78.50
2018-03-26T13:23:55.444Z,78.50
2018-03-26T13:26:21.631Z,79.40
2018-03-26T13:28:47.793Z,80.00
2018-03-26T13:31:14.700Z,81.90
2018-03-26T13:36:13.720Z,81.70
2018-03-26T13:38:39.879Z,80.30
2018-03-26T13:41:06.038Z,79.00
2018-03-26T13:43:32.261Z,79.10
2018-03-26T13:45:58.452Z,80.40
2018-03-26T13:48:25.379Z,80.70
2018-03-26T13:50:51.541Z,80.50
2018-03-26T13:53:18.471Z,81.90
2018-03-26T13:55:44.639Z,81.80
2018-03-26T13:58:10.793Z,83.00
2018-03-26T14:00:37.775Z,83.40
2018-03-26T14:03:03.943Z,83.30
2018-03-26T14:05:30.158Z,83.30
2018-03-26T14:07:56.384Z,83.90
2018-03-26T14:10:41.353Z,84.80
2018-03-26T14:13:26.961Z,87.00
2018-03-26T14:16:11.803Z,87.00
2018-03-26T14:18:38.019Z,88.00
2018-03-26T14:21:04.215Z,88.70
2018-03-26T14:23:30.432Z,88.60
2018-03-26T14:25:57.355Z,89.20
2018-03-26T14:28:23.582Z,89.10
2018-03-26T14:30:49.822Z,89.20
2018-03-26T14:33:16.036Z,89.50
2018-03-26T14:35:42.210Z,89.60
2018-03-26T14:38:08.433Z,90.20
2018-03-26T14:40:34.620Z,90.50
2018-03-26T14:43:00.859Z,90.50
2018-03-26T14:45:27.051Z,90.70
2018-03-26T14:47:53.265Z,90.80
2018-03-26T14:50:20.205Z,91.50
2018-03-26T14:52:47.191Z,91.60
2018-03-26T14:55:13.411Z,91.50
2018-03-26T14:57:40.328Z,91.60
2018-03-26T15:00:06.551Z,91.60
2018-03-26T15:02:32.749Z,91.60
2018-03-26T15:04:59.720Z,91.80
2018-03-26T15:07:25.882Z,91.80
2018-03-26T15:09:52.107Z,91.70
2018-03-26T15:12:19.091Z,91.90
2018-03-26T15:14:45.317Z,91.90
2018-03-26T15:17:11.519Z,92.00
2018-03-26T15:19:38.475Z,92.20
2018-03-26T15:22:04.727Z,91.80
2018-03-26T15:24:31.665Z,91.40
2018-03-26T15:26:57.891Z,91.30
2018-03-26T15:29:24.071Z,91.50
2018-03-26T15:31:51.033Z,91.40
2018-03-26T15:34:17.957Z,91.60
2018-03-26T15:36:44.197Z,91.60
2018-03-26T15:39:10.416Z,91.50
2018-03-26T15:41:36.628Z,91.40
2018-03-26T15:44:02.887Z,91.20
2018-03-26T15:46:29.084Z,91.30
2018-03-26T15:48:56.051Z,91.40
2018-03-26T15:51:22.976Z,91.10
2018-03-26T15:53:49.916Z,91.60
2018-03-26T15:56:16.160Z,91.30
2018-03-26T15:58:43.011Z,91.70
2018-03-26T16:01:09.822Z,91.90
2018-03-26T16:03:35.907Z,91.80
2018-03-26T16:06:02.731Z,91.80
2018-03-26T16:08:28.909Z,91.70
2018-03-26T16:10:55.796Z,92.00
2018-03-26T16:13:21.962Z,92.00
2018-03-26T16:15:48.111Z,92.00
2018-03-26T16:18:15.044Z,92.20
2018-03-26T16:20:41.197Z,92.20
2018-03-26T16:23:07.372Z,92.40
2018-03-26T16:25:34.299Z,92.80
2018-03-26T16:28:00.475Z,92.70
2018-03-26T16:30:27.399Z,92.80
2018-03-26T16:32:53.558Z,92.80
2018-03-26T16:35:20.536Z,92.90
2018-03-26T16:37:46.678Z,92.90
2018-03-26T16:40:12.896Z,93.10
2018-03-26T16:42:41.766Z,93.10
2018-03-26T16:45:07.930Z,93.00
2018-03-26T16:47:34.089Z,93.00
2018-03-26T16:50:00.985Z,93.30
2018-03-26T16:52:27.173Z,93.20
2018-03-26T16:54:54.077Z,93.50
2018-03-26T16:57:20.282Z,93.40
2018-03-26T17:00:14.157Z,93.50
2018-03-26T17:02:41.079Z,93.70
2018-03-26T17:05:07.306Z,93.70
2018-03-26T17:07:33.502Z,93.80
2018-03-26T17:10:00.454Z,93.90
2018-03-26T17:12:27.395Z,93.80
2018-03-26T17:14:53.596Z,93.80
2018-03-26T17:17:19.833Z,93.90
2018-03-26T17:19:46.038Z,94.00
2018-03-26T17:22:12.963Z,94.10
2018-03-26T17:24:39.183Z,94.10
2018-03-26T17:27:05.380Z,94.20
2018-03-26T17:29:32.295Z,94.30
2018-03-26T17:31:58.719Z,94.30
2018-03-26T17:34:24.908Z,94.40
2018-03-26T17:36:51.875Z,94.60
2018-03-26T17:39:18.877Z,94.60
2018-03-26T17:41:45.739Z,94.70
2018-03-26T17:44:11.927Z,94.60
2018-03-26T17:47:03.559Z,94.80
2018-03-26T17:49:36.328Z,94.90
2018-03-26T17:55:23.647Z,95.00
2018-03-26T17:57:50.614Z,95.20
2018-03-26T18:00:16.796Z,95.20
2018-03-26T18:02:42.983Z,95.30
2018-03-26T18:05:09.206Z,95.30
2018-03-26T18:07:36.145Z,95.50
2018-03-26T18:10:02.324Z,95.50
2018-03-26T18:12:29.231Z,95.70
2018-03-26T18:14:55.469Z,95.70
2018-03-26T18:17:21.668Z,95.80
2018-03-26T18:19:47.904Z,95.90
2018-03-26T18:22:14.098Z,95.90
2018-03-26T18:24:40.291Z,95.90
2018-03-26T18:27:06.509Z,95.80
2018-03-26T18:29:33.454Z,95.80
2018-03-26T18:31:59.619Z,95.80
2018-03-26T18:34:26.565Z,96.00
2018-03-26T18:36:53.515Z,96.00
2018-03-26T18:39:20.406Z,96.30
2018-03-26T18:41:46.599Z,96.00
2018-03-26T18:44:12.828Z,96.10
2018-03-26T18:46:39.019Z,96.10
2018-03-26T18:49:05.226Z,96.20
2018-03-26T18:51:31.416Z,96.20
2018-03-26T18:53:57.622Z,96.20
2018-03-26T18:56:24.594Z,96.30
2018-03-26T18:58:50.794Z,96.60
2018-03-26T19:01:16.984Z,96.30
2018-03-26T19:03:43.155Z,96.40
2018-03-26T19:06:09.380Z,96.40
2018-03-26T19:08:35.622Z,96.60
2018-03-26T19:11:01.795Z,96.60
2018-03-26T19:13:28.008Z,96.60
2018-03-26T19:15:54.199Z,96.60
2018-03-26T19:18:21.136Z,96.60
2018-03-26T19:20:47.330Z,96.60
2018-03-26T19:23:13.573Z,96.50
2018-03-26T19:25:39.774Z,96.60
2018-03-26T19:28:06.716Z,96.80
2018-03-26T19:30:32.904Z,96.70
2018-03-26T19:32:59.153Z,96.80
2018-03-26T19:35:25.351Z,96.80
2018-03-26T19:37:52.289Z,96.80
2018-03-26T19:40:18.490Z,96.80
2018-03-26T19:42:44.712Z,96.70
2018-03-26T19:45:10.932Z,96.70
2018-03-26T19:47:37.903Z,96.50
2018-03-26T19:50:04.067Z,96.50
2018-03-26T19:52:30.293Z,96.50
2018-03-26T19:54:56.475Z,96.40
2018-03-26T19:57:22.695Z,96.40
2018-03-26T19:59:48.898Z,96.30
2018-03-26T20:02:15.834Z,96.10
2018-03-26T20:04:42.025Z,96.10
2018-03-26T20:07:08.214Z,95.90
2018-03-26T20:09:34.410Z,96.10
2018-03-26T20:12:00.611Z,96.10
2018-03-26T20:14:27.556Z,96.10
2018-03-26T20:16:54.499Z,96.40
2018-03-26T20:19:20.677Z,96.20
2018-03-26T20:21:46.908Z,96.30
2018-03-26T20:24:13.875Z,96.40
2018-03-26T20:26:40.093Z,96.40
2018-03-26T20:29:06.986Z,96.30
2018-03-26T20:31:33.175Z,96.30
2018-03-26T20:33:59.399Z,96.30
2018-03-26T20:36:25.567Z,96.20
2018-03-26T20:38:52.489Z,96.30
2018-03-26T20:41:19.623Z,96.10
2018-03-26T20:43:45.819Z,96.00
2018-03-26T20:46:12.740Z,96.00
2018-03-26T20:48:38.939Z,95.90
2018-03-26T20:51:05.126Z,95.90
2018-03-26T20:53:31.327Z,96.00
2018-03-26T20:55:58.254Z,96.20
2018-03-26T20:58:24.470Z,96.20
2018-03-26T21:00:50.633Z,96.30
2018-03-26T21:03:16.827Z,96.30
2018-03-26T21:05:43.041Z,96.10
2018-03-26T21:08:09.215Z,96.40
2018-03-26T21:13:46.147Z,96.40
2018-03-26T21:16:12.480Z,96.50
2018-03-26T21:24:44.110Z,96.80
2018-03-26T21:27:13.821Z,96.90
2018-03-26T21:29:40.088Z,97.00
2018-03-26T21:35:15.455Z,97.40
2018-03-26T21:37:44.792Z,97.50
2018-03-26T21:43:34.866Z,97.50
2018-03-26T21:46:06.446Z,97.60
2018-03-26T21:48:33.358Z,97.80
2018-03-26T21:51:11.843Z,97.70
2018-03-26T21:53:49.843Z,98.10
2018-03-26T21:56:30.694Z,98.20
2018-03-26T21:59:03.997Z,98.20
2018-03-26T22:01:30.297Z,98.30
2018-03-26T22:07:12.415Z,98.20
2018-03-26T22:09:38.583Z,98.10
2018-03-26T22:15:05.159Z,98.00
2018-03-26T22:17:46.487Z,97.60
2018-03-26T22:20:14.719Z,97.60
2018-03-26T22:22:40.924Z,97.50
2018-03-26T22:25:07.106Z,97.50
2018-03-26T22:27:33.295Z,97.70
2018-03-26T22:29:59.489Z,98.10
2018-03-26T22:32:25.688Z,97.90
2018-03-26T22:34:51.885Z,98.00
2018-03-26T22:37:18.839Z,98.20
2018-03-26T22:39:45.750Z,98.30
2018-03-26T22:42:11.940Z,98.30
2018-03-26T22:44:38.145Z,98.20
2018-03-26T22:47:04.351Z,98.30
2018-03-26T22:49:30.559Z,98.40
2018-03-26T22:51:57.513Z,98.30
2018-03-26T22:54:24.459Z,98.30
2018-03-26T22:56:50.660Z,98.30
2018-03-26T22:59:16.857Z,98.30
2018-03-26T23:01:43.815Z,98.20
2018-03-26T23:04:10.766Z,98.20
2018-03-26T23:06:37.695Z,98.20
2018-03-26T23:09:03.860Z,98.50
2018-03-26T23:11:30.787Z,98.20
2018-03-26T23:13:56.978Z,98.10
2018-03-26T23:16:23.187Z,98.10
2018-03-26T23:18:49.379Z,98.10
2018-03-26T23:21:15.580Z,98.00
2018-03-26T23:23:42.519Z,98.10
2018-03-26T23:26:08.745Z,98.00
2018-03-26T23:28:34.963Z,98.10
2018-03-26T23:31:01.107Z,98.10
2018-03-26T23:33:27.278Z,98.10
2018-03-26T23:35:57.106Z,98.00
2018-03-26T23:38:23.296Z,98.00
2018-03-26T23:40:49.496Z,98.00
2018-03-26T23:43:15.675Z,98.00
2018-03-26T23:45:41.864Z,98.00
2018-03-26T23:48:08.067Z,98.00
2018-03-26T23:50:34.259Z,98.00
2018-03-26T23:53:01.175Z,97.80
2018-03-26T23:55:27.366Z,98.10
2018-03-26T23:57:54.345Z,98.10
